sensor_id;sensor_type;location;lat;lon;timestamp;P1;durP1;ratioP1;P2;durP2;ratioP2
1376;SDS011;682;52.502;13.488;2023-04-25T00:02:00;8.30;;;3.77;;
1376;SDS011;682;52.502;13.488;2023-04-25T00:04:29;8.60;;;3.73;;
1376;SDS011;682;52.502;13.488;2023-04-25T00:06:58;7.63;;;3.77;;
1376;SDS011;682;52.502;13.488;2023-04-25T00:09:27;7.00;;;3.57;;
1376;SDS011;682;52.502;13.488;2023-04-25T00:11:57;7.00;;;3.00;;
1376;SDS011;682;52.502;13.488;2023-04-25T00:14:23;9.23;;;3.40;;
1376;SDS011;682;52.502;13.488;2023-04-25T00:16:51;9.80;;;4.03;;
1376;SDS011;682;52.502;13.488;2023-04-25T00:19:18;8.37;;;3.43;;
1376;SDS011;682;52.502;13.488;2023-04-25T00:21:45;6.77;;;2.63;;
1376;SDS011;682;52.502;13.488;2023-04-25T00:24:13;29.13;;;18.10;;
1376;SDS011;682;52.502;13.488;2023-04-25T00:26:40;7.97;;;3.40;;
1376;SDS011;682;52.502;13.488;2023-04-25T00:29:08;7.60;;;3.07;;
1376;SDS011;682;52.502;13.488;2023-04-25T00:31:35;9.37;;;3.50;;
1376;SDS011;682;52.502;13.488;2023-04-25T00:34:02;7.20;;;2.80;;
1376;SDS011;682;52.502;13.488;2023-04-25T00:36:29;7.93;;;3.10;;
1376;SDS011;682;52.502;13.488;2023-04-25T00:38:56;7.70;;;3.10;;
1376;SDS011;682;52.502;13.488;2023-04-25T00:41:23;11.10;;;3.50;;
1376;SDS011;682;52.502;13.488;2023-04-25T00:43:51;7.60;;;2.87;;
1376;SDS011;682;52.502;13.488;2023-04-25T00:46:21;8.03;;;2.83;;
1376;SDS011;682;52.502;13.488;2023-04-25T00:48:48;9.00;;;3.30;;
1376;SDS011;682;52.502;13.488;2023-04-25T00:51:16;8.37;;;3.10;;
1376;SDS011;682;52.502;13.488;2023-04-25T00:53:45;8.57;;;3.63;;
1376;SDS011;682;52.502;13.488;2023-04-25T00:56:13;7.77;;;2.90;;
1376;SDS011;682;52.502;13.488;2023-04-25T00:58:40;8.53;;;3.60;;
1376;SDS011;682;52.502;13.488;2023-04-25T01:01:07;9.90;;;3.20;;
1376;SDS011;682;52.502;13.488;2023-04-25T01:03:37;9.10;;;3.50;;
1376;SDS011;682;52.502;13.488;2023-04-25T01:06:08;8.50;;;3.20;;
1376;SDS011;682;52.502;13.488;2023-04-25T01:08:42;10.00;;;3.90;;
1376;SDS011;682;52.502;13.488;2023-04-25T01:11:14;9.00;;;3.60;;
1376;SDS011;682;52.502;13.488;2023-04-25T01:13:50;9.23;;;3.77;;
1376;SDS011;682;52.502;13.488;2023-04-25T01:16:27;10.23;;;3.97;;
1376;SDS011;682;52.502;13.488;2023-04-25T01:19:09;11.93;;;4.03;;
1376;SDS011;682;52.502;13.488;2023-04-25T01:21:52;8.30;;;3.37;;
1376;SDS011;682;52.502;13.488;2023-04-25T01:24:29;10.27;;;4.07;;
1376;SDS011;682;52.502;13.488;2023-04-25T01:26:59;10.50;;;3.30;;
1376;SDS011;682;52.502;13.488;2023-04-25T01:29:27;10.60;;;3.90;;
1376;SDS011;682;52.502;13.488;2023-04-25T01:31:54;8.53;;;3.57;;
1376;SDS011;682;52.502;13.488;2023-04-25T01:34:25;9.13;;;3.83;;
1376;SDS011;682;52.502;13.488;2023-04-25T01:36:54;11.67;;;3.90;;
1376;SDS011;682;52.502;13.488;2023-04-25T01:39:28;12.47;;;3.97;;
1376;SDS011;682;52.502;13.488;2023-04-25T01:42:00;9.37;;;3.80;;
1376;SDS011;682;52.502;13.488;2023-04-25T01:44:27;9.23;;;4.27;;
1376;SDS011;682;52.502;13.488;2023-04-25T01:46:57;9.50;;;3.67;;
1376;SDS011;682;52.502;13.488;2023-04-25T01:49:27;9.30;;;4.20;;
1376;SDS011;682;52.502;13.488;2023-04-25T01:51:56;12.27;;;3.90;;
1376;SDS011;682;52.502;13.488;2023-04-25T01:54:37;10.00;;;4.40;;
1376;SDS011;682;52.502;13.488;2023-04-25T01:57:09;7.50;;;3.27;;
1376;SDS011;682;52.502;13.488;2023-04-25T01:59:45;9.23;;;3.90;;
1376;SDS011;682;52.502;13.488;2023-04-25T02:02:12;10.23;;;3.83;;
1376;SDS011;682;52.502;13.488;2023-04-25T02:04:42;10.73;;;4.20;;
1376;SDS011;682;52.502;13.488;2023-04-25T02:07:15;9.10;;;3.60;;
1376;SDS011;682;52.502;13.488;2023-04-25T02:09:43;9.27;;;4.23;;
1376;SDS011;682;52.502;13.488;2023-04-25T02:12:10;15.10;;;4.80;;
1376;SDS011;682;52.502;13.488;2023-04-25T02:14:58;9.80;;;4.23;;
1376;SDS011;682;52.502;13.488;2023-04-25T02:17:27;8.23;;;4.50;;
1376;SDS011;682;52.502;13.488;2023-04-25T02:19:56;9.73;;;4.70;;
1376;SDS011;682;52.502;13.488;2023-04-25T02:22:25;9.53;;;4.50;;
1376;SDS011;682;52.502;13.488;2023-04-25T02:24:59;9.30;;;4.73;;
1376;SDS011;682;52.502;13.488;2023-04-25T02:27:29;11.00;;;4.87;;
1376;SDS011;682;52.502;13.488;2023-04-25T02:29:56;9.70;;;4.90;;
1376;SDS011;682;52.502;13.488;2023-04-25T02:32:23;9.50;;;4.60;;
1376;SDS011;682;52.502;13.488;2023-04-25T02:34:50;7.77;;;4.40;;
1376;SDS011;682;52.502;13.488;2023-04-25T02:37:19;11.60;;;4.73;;
1376;SDS011;682;52.502;13.488;2023-04-25T02:39:48;8.77;;;4.00;;
1376;SDS011;682;52.502;13.488;2023-04-25T02:42:29;9.33;;;4.50;;
1376;SDS011;682;52.502;13.488;2023-04-25T02:44:57;10.13;;;3.80;;
1376;SDS011;682;52.502;13.488;2023-04-25T02:47:32;10.40;;;4.73;;
1376;SDS011;682;52.502;13.488;2023-04-25T02:49:59;11.57;;;4.50;;
1376;SDS011;682;52.502;13.488;2023-04-25T02:52:28;9.70;;;5.10;;
1376;SDS011;682;52.502;13.488;2023-04-25T02:55:18;8.87;;;4.10;;
1376;SDS011;682;52.502;13.488;2023-04-25T02:57:59;10.30;;;4.90;;
1376;SDS011;682;52.502;13.488;2023-04-25T03:00:30;9.23;;;4.47;;
1376;SDS011;682;52.502;13.488;2023-04-25T03:03:01;9.63;;;4.87;;
1376;SDS011;682;52.502;13.488;2023-04-25T03:05:33;10.00;;;4.80;;
1376;SDS011;682;52.502;13.488;2023-04-25T03:08:02;8.83;;;4.70;;
1376;SDS011;682;52.502;13.488;2023-04-25T03:10:36;8.47;;;4.57;;
1376;SDS011;682;52.502;13.488;2023-04-25T03:13:03;10.80;;;5.30;;
1376;SDS011;682;52.502;13.488;2023-04-25T03:15:30;8.57;;;4.60;;
1376;SDS011;682;52.502;13.488;2023-04-25T03:17:57;10.00;;;5.43;;
1376;SDS011;682;52.502;13.488;2023-04-25T03:20:25;20.27;;;6.57;;
1376;SDS011;682;52.502;13.488;2023-04-25T03:22:53;9.80;;;4.57;;
1376;SDS011;682;52.502;13.488;2023-04-25T03:25:21;8.80;;;4.37;;
1376;SDS011;682;52.502;13.488;2023-04-25T03:27:52;12.57;;;6.83;;
1376;SDS011;682;52.502;13.488;2023-04-25T03:30:26;10.80;;;5.63;;
1376;SDS011;682;52.502;13.488;2023-04-25T03:32:54;12.70;;;5.47;;
1376;SDS011;682;52.502;13.488;2023-04-25T03:35:21;9.30;;;5.20;;
1376;SDS011;682;52.502;13.488;2023-04-25T03:37:52;11.03;;;5.83;;
1376;SDS011;682;52.502;13.488;2023-04-25T03:40:19;12.37;;;5.60;;
1376;SDS011;682;52.502;13.488;2023-04-25T03:42:48;15.30;;;7.37;;
1376;SDS011;682;52.502;13.488;2023-04-25T03:45:25;15.10;;;6.57;;
1376;SDS011;682;52.502;13.488;2023-04-25T03:47:52;13.73;;;7.47;;
1376;SDS011;682;52.502;13.488;2023-04-25T03:50:21;9.73;;;5.67;;
1376;SDS011;682;52.502;13.488;2023-04-25T03:52:49;13.90;;;6.90;;
1376;SDS011;682;52.502;13.488;2023-04-25T03:55:27;12.23;;;5.70;;
1376;SDS011;682;52.502;13.488;2023-04-25T03:57:56;9.90;;;4.93;;
1376;SDS011;682;52.502;13.488;2023-04-25T04:06:20;11.57;;;5.30;;
1376;SDS011;682;52.502;13.488;2023-04-25T04:08:48;12.63;;;5.83;;
1376;SDS011;682;52.502;13.488;2023-04-25T04:11:15;10.37;;;4.50;;
1376;SDS011;682;52.502;13.488;2023-04-25T04:13:43;9.93;;;5.50;;
1376;SDS011;682;52.502;13.488;2023-04-25T04:16:10;9.00;;;5.07;;
1376;SDS011;682;52.502;13.488;2023-04-25T04:18:37;10.20;;;5.40;;
1376;SDS011;682;52.502;13.488;2023-04-25T04:21:11;10.50;;;5.13;;
1376;SDS011;682;52.502;13.488;2023-04-25T04:23:53;12.17;;;5.27;;
1376;SDS011;682;52.502;13.488;2023-04-25T04:26:22;10.33;;;5.47;;
1376;SDS011;682;52.502;13.488;2023-04-25T04:28:52;12.13;;;5.67;;
1376;SDS011;682;52.502;13.488;2023-04-25T04:31:20;10.50;;;5.03;;
1376;SDS011;682;52.502;13.488;2023-04-25T04:33:47;10.40;;;5.63;;
1376;SDS011;682;52.502;13.488;2023-04-25T04:36:14;13.80;;;5.20;;
1376;SDS011;682;52.502;13.488;2023-04-25T04:38:45;9.13;;;5.13;;
1376;SDS011;682;52.502;13.488;2023-04-25T04:41:12;11.33;;;5.47;;
1376;SDS011;682;52.502;13.488;2023-04-25T04:43:39;12.87;;;5.83;;
1376;SDS011;682;52.502;13.488;2023-04-25T04:46:09;10.47;;;5.30;;
1376;SDS011;682;52.502;13.488;2023-04-25T04:48:37;10.07;;;5.33;;
1376;SDS011;682;52.502;13.488;2023-04-25T04:51:05;8.50;;;4.50;;
1376;SDS011;682;52.502;13.488;2023-04-25T04:53:32;9.80;;;5.23;;
1376;SDS011;682;52.502;13.488;2023-04-25T04:55:59;10.87;;;5.50;;
1376;SDS011;682;52.502;13.488;2023-04-25T04:58:26;8.57;;;4.40;;
1376;SDS011;682;52.502;13.488;2023-04-25T05:00:54;11.37;;;4.63;;
1376;SDS011;682;52.502;13.488;2023-04-25T05:03:23;13.50;;;4.83;;
1376;SDS011;682;52.502;13.488;2023-04-25T05:05:50;9.83;;;5.10;;
1376;SDS011;682;52.502;13.488;2023-04-25T05:08:19;11.07;;;5.20;;
1376;SDS011;682;52.502;13.488;2023-04-25T05:10:46;10.87;;;5.13;;
1376;SDS011;682;52.502;13.488;2023-04-25T05:13:14;9.97;;;5.20;;
1376;SDS011;682;52.502;13.488;2023-04-25T05:15:41;12.50;;;5.67;;
1376;SDS011;682;52.502;13.488;2023-04-25T05:18:08;10.60;;;4.83;;
1376;SDS011;682;52.502;13.488;2023-04-25T05:20:36;10.97;;;5.50;;
1376;SDS011;682;52.502;13.488;2023-04-25T05:23:05;10.37;;;5.37;;
1376;SDS011;682;52.502;13.488;2023-04-25T05:25:32;10.90;;;5.30;;
1376;SDS011;682;52.502;13.488;2023-04-25T05:28:00;12.87;;;5.17;;
1376;SDS011;682;52.502;13.488;2023-04-25T05:30:28;12.10;;;5.40;;
1376;SDS011;682;52.502;13.488;2023-04-25T05:32:55;11.20;;;6.13;;
1376;SDS011;682;52.502;13.488;2023-04-25T05:35:23;14.77;;;5.43;;
1376;SDS011;682;52.502;13.488;2023-04-25T05:37:53;10.80;;;6.13;;
1376;SDS011;682;52.502;13.488;2023-04-25T05:40:20;9.43;;;5.10;;
1376;SDS011;682;52.502;13.488;2023-04-25T05:42:48;11.40;;;5.40;;
1376;SDS011;682;52.502;13.488;2023-04-25T05:45:16;11.30;;;6.70;;
1376;SDS011;682;52.502;13.488;2023-04-25T05:47:46;15.00;;;6.10;;
1376;SDS011;682;52.502;13.488;2023-04-25T05:50:15;9.17;;;4.97;;
1376;SDS011;682;52.502;13.488;2023-04-25T05:52:44;11.13;;;6.40;;
1376;SDS011;682;52.502;13.488;2023-04-25T05:55:12;15.40;;;6.27;;
1376;SDS011;682;52.502;13.488;2023-04-25T05:57:40;12.07;;;5.73;;
1376;SDS011;682;52.502;13.488;2023-04-25T06:00:11;11.40;;;5.43;;
1376;SDS011;682;52.502;13.488;2023-04-25T06:02:40;13.83;;;6.60;;
1376;SDS011;682;52.502;13.488;2023-04-25T06:05:07;15.40;;;6.70;;
1376;SDS011;682;52.502;13.488;2023-04-25T06:07:35;13.23;;;6.87;;
1376;SDS011;682;52.502;13.488;2023-04-25T06:10:02;13.47;;;6.27;;
1376;SDS011;682;52.502;13.488;2023-04-25T06:12:32;11.30;;;6.40;;
1376;SDS011;682;52.502;13.488;2023-04-25T06:14:59;10.47;;;6.00;;
1376;SDS011;682;52.502;13.488;2023-04-25T06:17:27;13.40;;;6.10;;
1376;SDS011;682;52.502;13.488;2023-04-25T06:19:53;12.67;;;6.87;;
1376;SDS011;682;52.502;13.488;2023-04-25T06:22:20;12.60;;;6.33;;
1376;SDS011;682;52.502;13.488;2023-04-25T06:24:48;13.43;;;6.20;;
1376;SDS011;682;52.502;13.488;2023-04-25T06:27:15;14.07;;;6.93;;
1376;SDS011;682;52.502;13.488;2023-04-25T06:29:46;10.87;;;5.73;;
1376;SDS011;682;52.502;13.488;2023-04-25T06:32:13;12.07;;;6.60;;
1376;SDS011;682;52.502;13.488;2023-04-25T06:34:40;11.33;;;5.07;;
1376;SDS011;682;52.502;13.488;2023-04-25T06:37:07;11.07;;;6.70;;
1376;SDS011;682;52.502;13.488;2023-04-25T06:39:34;14.90;;;6.20;;
1376;SDS011;682;52.502;13.488;2023-04-25T06:42:01;13.93;;;5.83;;
1376;SDS011;682;52.502;13.488;2023-04-25T06:44:31;11.80;;;6.40;;
1376;SDS011;682;52.502;13.488;2023-04-25T06:47:00;10.83;;;5.93;;
1376;SDS011;682;52.502;13.488;2023-04-25T06:49:27;14.60;;;6.20;;
1376;SDS011;682;52.502;13.488;2023-04-25T06:51:57;14.10;;;6.40;;
1376;SDS011;682;52.502;13.488;2023-04-25T06:54:24;14.33;;;6.53;;
1376;SDS011;682;52.502;13.488;2023-04-25T06:56:54;10.43;;;5.70;;
1376;SDS011;682;52.502;13.488;2023-04-25T06:59:22;13.03;;;5.87;;
1376;SDS011;682;52.502;13.488;2023-04-25T07:01:49;19.70;;;6.87;;
1376;SDS011;682;52.502;13.488;2023-04-25T07:04:18;10.87;;;6.00;;
1376;SDS011;682;52.502;13.488;2023-04-25T07:06:45;10.83;;;5.43;;
1376;SDS011;682;52.502;13.488;2023-04-25T07:09:13;13.27;;;6.60;;
1376;SDS011;682;52.502;13.488;2023-04-25T07:11:40;11.40;;;5.60;;
1376;SDS011;682;52.502;13.488;2023-04-25T07:14:07;12.20;;;6.57;;
1376;SDS011;682;52.502;13.488;2023-04-25T07:16:34;9.87;;;4.53;;
1376;SDS011;682;52.502;13.488;2023-04-25T07:19:01;11.40;;;5.40;;
1376;SDS011;682;52.502;13.488;2023-04-25T07:21:32;10.40;;;5.93;;
1376;SDS011;682;52.502;13.488;2023-04-25T07:24:01;10.67;;;4.60;;
1376;SDS011;682;52.502;13.488;2023-04-25T07:26:28;10.23;;;5.00;;
1376;SDS011;682;52.502;13.488;2023-04-25T07:28:55;12.10;;;5.50;;
1376;SDS011;682;52.502;13.488;2023-04-25T07:31:22;9.87;;;5.37;;
1376;SDS011;682;52.502;13.488;2023-04-25T07:33:49;9.43;;;4.83;;
1376;SDS011;682;52.502;13.488;2023-04-25T07:36:19;9.33;;;5.13;;
1376;SDS011;682;52.502;13.488;2023-04-25T07:38:50;10.03;;;5.47;;
1376;SDS011;682;52.502;13.488;2023-04-25T07:41:17;15.43;;;6.03;;
1376;SDS011;682;52.502;13.488;2023-04-25T07:43:44;12.13;;;5.43;;
1376;SDS011;682;52.502;13.488;2023-04-25T07:46:11;13.17;;;5.47;;
1376;SDS011;682;52.502;13.488;2023-04-25T07:48:40;11.27;;;5.70;;
1376;SDS011;682;52.502;13.488;2023-04-25T07:51:07;13.30;;;5.70;;
1376;SDS011;682;52.502;13.488;2023-04-25T07:53:34;11.40;;;5.30;;
1376;SDS011;682;52.502;13.488;2023-04-25T07:56:04;12.93;;;5.47;;
1376;SDS011;682;52.502;13.488;2023-04-25T07:58:31;15.07;;;5.07;;
1376;SDS011;682;52.502;13.488;2023-04-25T08:00:58;14.90;;;5.40;;
1376;SDS011;682;52.502;13.488;2023-04-25T08:03:25;12.60;;;5.50;;
1376;SDS011;682;52.502;13.488;2023-04-25T08:05:52;12.77;;;5.43;;
1376;SDS011;682;52.502;13.488;2023-04-25T08:08:21;11.93;;;5.07;;
1376;SDS011;682;52.502;13.488;2023-04-25T08:10:48;15.43;;;6.40;;
1376;SDS011;682;52.502;13.488;2023-04-25T08:13:17;16.10;;;5.67;;
1376;SDS011;682;52.502;13.488;2023-04-25T08:15:45;13.50;;;4.93;;
1376;SDS011;682;52.502;13.488;2023-04-25T08:18:12;14.10;;;5.70;;
1376;SDS011;682;52.502;13.488;2023-04-25T08:20:40;13.13;;;6.23;;
1376;SDS011;682;52.502;13.488;2023-04-25T08:23:08;14.70;;;5.40;;
1376;SDS011;682;52.502;13.488;2023-04-25T08:25:36;19.93;;;5.07;;
1376;SDS011;682;52.502;13.488;2023-04-25T08:28:05;17.70;;;5.73;;
1376;SDS011;682;52.502;13.488;2023-04-25T08:30:33;11.87;;;4.70;;
1376;SDS011;682;52.502;13.488;2023-04-25T08:33:00;14.20;;;5.20;;
1376;SDS011;682;52.502;13.488;2023-04-25T08:35:27;13.43;;;6.70;;
1376;SDS011;682;52.502;13.488;2023-04-25T08:37:56;10.90;;;5.10;;
1376;SDS011;682;52.502;13.488;2023-04-25T08:40:26;12.67;;;5.20;;
1376;SDS011;682;52.502;13.488;2023-04-25T08:42:55;14.67;;;5.63;;
1376;SDS011;682;52.502;13.488;2023-04-25T08:45:24;12.80;;;5.20;;
1376;SDS011;682;52.502;13.488;2023-04-25T08:47:57;10.77;;;5.23;;
1376;SDS011;682;52.502;13.488;2023-04-25T08:50:28;14.23;;;5.13;;
1376;SDS011;682;52.502;13.488;2023-04-25T09:03:03;14.30;;;5.67;;
1376;SDS011;682;52.502;13.488;2023-04-25T09:05:31;13.73;;;4.57;;
1376;SDS011;682;52.502;13.488;2023-04-25T09:07:59;11.40;;;4.30;;
1376;SDS011;682;52.502;13.488;2023-04-25T09:10:28;13.03;;;4.83;;
1376;SDS011;682;52.502;13.488;2023-04-25T09:13:04;11.97;;;4.60;;
1376;SDS011;682;52.502;13.488;2023-04-25T09:15:34;12.50;;;4.03;;
1376;SDS011;682;52.502;13.488;2023-04-25T09:18:24;11.07;;;3.50;;
1376;SDS011;682;52.502;13.488;2023-04-25T09:20:52;9.90;;;4.30;;
1376;SDS011;682;52.502;13.488;2023-04-25T09:23:22;12.37;;;4.23;;
1376;SDS011;682;52.502;13.488;2023-04-25T09:25:50;13.40;;;4.57;;
1376;SDS011;682;52.502;13.488;2023-04-25T09:28:22;13.03;;;4.50;;
1376;SDS011;682;52.502;13.488;2023-04-25T09:30:54;12.57;;;4.03;;
1376;SDS011;682;52.502;13.488;2023-04-25T09:33:28;9.43;;;3.53;;
1376;SDS011;682;52.502;13.488;2023-04-25T09:36:01;12.63;;;5.30;;
1376;SDS011;682;52.502;13.488;2023-04-25T09:38:29;10.20;;;4.23;;
1376;SDS011;682;52.502;13.488;2023-04-25T09:40:58;11.30;;;4.30;;
1376;SDS011;682;52.502;13.488;2023-04-25T09:43:27;8.30;;;3.40;;
1376;SDS011;682;52.502;13.488;2023-04-25T09:45:54;10.50;;;4.03;;
1376;SDS011;682;52.502;13.488;2023-04-25T09:48:37;11.50;;;4.00;;
1376;SDS011;682;52.502;13.488;2023-04-25T09:51:05;12.80;;;4.27;;
1376;SDS011;682;52.502;13.488;2023-04-25T09:53:33;14.30;;;4.30;;
1376;SDS011;682;52.502;13.488;2023-04-25T09:56:02;8.37;;;3.37;;
1376;SDS011;682;52.502;13.488;2023-04-25T09:58:34;9.40;;;3.63;;
1376;SDS011;682;52.502;13.488;2023-04-25T10:01:03;10.83;;;3.83;;
1376;SDS011;682;52.502;13.488;2023-04-25T10:03:32;8.50;;;3.20;;
1376;SDS011;682;52.502;13.488;2023-04-25T10:06:04;8.53;;;3.40;;
1376;SDS011;682;52.502;13.488;2023-04-25T10:08:34;9.17;;;3.60;;
1376;SDS011;682;52.502;13.488;2023-04-25T10:11:04;9.20;;;3.40;;
1376;SDS011;682;52.502;13.488;2023-04-25T10:13:34;8.10;;;2.87;;
1376;SDS011;682;52.502;13.488;2023-04-25T10:16:06;8.10;;;3.40;;
1376;SDS011;682;52.502;13.488;2023-04-25T10:18:35;10.50;;;3.97;;
1376;SDS011;682;52.502;13.488;2023-04-25T10:21:04;9.23;;;3.20;;
1376;SDS011;682;52.502;13.488;2023-04-25T10:23:32;9.93;;;2.80;;
1376;SDS011;682;52.502;13.488;2023-04-25T10:26:01;11.43;;;3.63;;
1376;SDS011;682;52.502;13.488;2023-04-25T10:28:29;10.10;;;3.90;;
1376;SDS011;682;52.502;13.488;2023-04-25T10:31:13;7.67;;;3.30;;
1376;SDS011;682;52.502;13.488;2023-04-25T10:33:43;8.67;;;3.30;;
1376;SDS011;682;52.502;13.488;2023-04-25T10:36:12;9.37;;;2.77;;
1376;SDS011;682;52.502;13.488;2023-04-25T10:38:41;8.83;;;3.10;;
1376;SDS011;682;52.502;13.488;2023-04-25T10:41:10;7.80;;;3.20;;
1376;SDS011;682;52.502;13.488;2023-04-25T10:43:39;8.90;;;3.63;;
1376;SDS011;682;52.502;13.488;2023-04-25T10:46:13;9.20;;;2.87;;
1376;SDS011;682;52.502;13.488;2023-04-25T10:48:46;10.23;;;3.43;;
1376;SDS011;682;52.502;13.488;2023-04-25T10:51:20;7.83;;;3.23;;
1376;SDS011;682;52.502;13.488;2023-04-25T10:53:58;10.30;;;3.23;;
1376;SDS011;682;52.502;13.488;2023-04-25T10:56:27;10.73;;;4.07;;
1376;SDS011;682;52.502;13.488;2023-04-25T10:59:05;9.70;;;3.33;;
1376;SDS011;682;52.502;13.488;2023-04-25T11:01:36;11.03;;;3.70;;
1376;SDS011;682;52.502;13.488;2023-04-25T11:04:06;15.03;;;3.60;;
1376;SDS011;682;52.502;13.488;2023-04-25T11:06:54;14.60;;;3.93;;
1376;SDS011;682;52.502;13.488;2023-04-25T11:09:34;8.30;;;3.03;;
1376;SDS011;682;52.502;13.488;2023-04-25T11:12:04;9.93;;;3.40;;
1376;SDS011;682;52.502;13.488;2023-04-25T11:14:34;8.40;;;3.40;;
1376;SDS011;682;52.502;13.488;2023-04-25T11:17:01;9.83;;;3.93;;
1376;SDS011;682;52.502;13.488;2023-04-25T11:19:28;9.53;;;3.13;;
1376;SDS011;682;52.502;13.488;2023-04-25T11:21:57;8.67;;;3.27;;
1376;SDS011;682;52.502;13.488;2023-04-25T11:24:26;11.63;;;3.60;;
1376;SDS011;682;52.502;13.488;2023-04-25T11:26:57;10.13;;;2.73;;
1376;SDS011;682;52.502;13.488;2023-04-25T11:29:29;9.80;;;3.50;;
1376;SDS011;682;52.502;13.488;2023-04-25T11:32:00;7.67;;;2.97;;
1376;SDS011;682;52.502;13.488;2023-04-25T11:34:30;9.30;;;3.00;;
1376;SDS011;682;52.502;13.488;2023-04-25T11:37:00;6.40;;;2.57;;
1376;SDS011;682;52.502;13.488;2023-04-25T11:39:31;11.40;;;3.50;;
1376;SDS011;682;52.502;13.488;2023-04-25T11:42:03;10.63;;;3.47;;
1376;SDS011;682;52.502;13.488;2023-04-25T11:44:30;9.37;;;3.20;;
1376;SDS011;682;52.502;13.488;2023-04-25T11:46:57;8.97;;;3.03;;
1376;SDS011;682;52.502;13.488;2023-04-25T11:49:24;7.40;;;3.37;;
1376;SDS011;682;52.502;13.488;2023-04-25T11:51:57;7.80;;;2.80;;
1376;SDS011;682;52.502;13.488;2023-04-25T11:54:26;7.83;;;3.00;;
1376;SDS011;682;52.502;13.488;2023-04-25T11:56:53;8.73;;;2.73;;
1376;SDS011;682;52.502;13.488;2023-04-25T11:59:23;10.03;;;3.10;;
1376;SDS011;682;52.502;13.488;2023-04-25T12:01:51;8.90;;;3.10;;
1376;SDS011;682;52.502;13.488;2023-04-25T12:04:19;9.77;;;3.40;;
1376;SDS011;682;52.502;13.488;2023-04-25T12:06:48;6.83;;;2.70;;
1376;SDS011;682;52.502;13.488;2023-04-25T12:09:18;10.07;;;3.17;;
1376;SDS011;682;52.502;13.488;2023-04-25T12:11:52;5.33;;;2.40;;
1376;SDS011;682;52.502;13.488;2023-04-25T12:14:21;8.00;;;2.57;;
1376;SDS011;682;52.502;13.488;2023-04-25T12:16:51;7.57;;;3.10;;
1376;SDS011;682;52.502;13.488;2023-04-25T12:19:21;9.43;;;2.70;;
1376;SDS011;682;52.502;13.488;2023-04-25T12:21:50;6.50;;;2.67;;
1376;SDS011;682;52.502;13.488;2023-04-25T12:24:17;9.33;;;4.10;;
1376;SDS011;682;52.502;13.488;2023-04-25T12:26:52;7.50;;;3.43;;
1376;SDS011;682;52.502;13.488;2023-04-25T12:29:21;8.67;;;3.20;;
1376;SDS011;682;52.502;13.488;2023-04-25T12:31:51;10.20;;;2.80;;
1376;SDS011;682;52.502;13.488;2023-04-25T12:34:21;10.43;;;3.60;;
1376;SDS011;682;52.502;13.488;2023-04-25T12:36:49;10.03;;;3.13;;
1376;SDS011;682;52.502;13.488;2023-04-25T12:39:17;9.80;;;3.13;;
1376;SDS011;682;52.502;13.488;2023-04-25T12:41:46;10.50;;;3.10;;
1376;SDS011;682;52.502;13.488;2023-04-25T12:44:16;7.60;;;2.77;;
1376;SDS011;682;52.502;13.488;2023-04-25T12:46:43;9.03;;;2.93;;
1376;SDS011;682;52.502;13.488;2023-04-25T12:49:10;10.37;;;3.03;;
1376;SDS011;682;52.502;13.488;2023-04-25T12:51:37;8.93;;;2.90;;
1376;SDS011;682;52.502;13.488;2023-04-25T12:54:06;8.03;;;2.67;;
1376;SDS011;682;52.502;13.488;2023-04-25T12:56:34;10.53;;;2.60;;
1376;SDS011;682;52.502;13.488;2023-04-25T12:59:02;8.47;;;3.00;;
1376;SDS011;682;52.502;13.488;2023-04-25T13:01:30;8.77;;;3.17;;
1376;SDS011;682;52.502;13.488;2023-04-25T13:03:58;8.53;;;3.23;;
1376;SDS011;682;52.502;13.488;2023-04-25T13:06:25;8.80;;;3.10;;
1376;SDS011;682;52.502;13.488;2023-04-25T13:08:56;7.50;;;2.53;;
1376;SDS011;682;52.502;13.488;2023-04-25T13:11:23;6.07;;;2.77;;
1376;SDS011;682;52.502;13.488;2023-04-25T13:13:50;7.27;;;3.00;;
1376;SDS011;682;52.502;13.488;2023-04-25T13:16:18;8.97;;;3.03;;
1376;SDS011;682;52.502;13.488;2023-04-25T13:18:48;6.60;;;3.03;;
1376;SDS011;682;52.502;13.488;2023-04-25T13:21:16;11.03;;;2.77;;
1376;SDS011;682;52.502;13.488;2023-04-25T13:23:44;6.80;;;1.90;;
1376;SDS011;682;52.502;13.488;2023-04-25T13:26:12;9.70;;;3.50;;
1376;SDS011;682;52.502;13.488;2023-04-25T13:28:41;7.37;;;2.80;;
1376;SDS011;682;52.502;13.488;2023-04-25T13:31:11;7.90;;;2.87;;
1376;SDS011;682;52.502;13.488;2023-04-25T13:33:39;8.20;;;2.13;;
1376;SDS011;682;52.502;13.488;2023-04-25T13:36:08;6.73;;;2.10;;
1376;SDS011;682;52.502;13.488;2023-04-25T13:38:36;7.43;;;2.00;;
1376;SDS011;682;52.502;13.488;2023-04-25T13:41:04;5.93;;;2.13;;
1376;SDS011;682;52.502;13.488;2023-04-25T13:43:32;8.23;;;2.83;;
1376;SDS011;682;52.502;13.488;2023-04-25T13:45:59;7.70;;;2.50;;
1376;SDS011;682;52.502;13.488;2023-04-25T13:48:27;7.63;;;2.83;;
1376;SDS011;682;52.502;13.488;2023-04-25T13:50:55;8.40;;;2.83;;
1376;SDS011;682;52.502;13.488;2023-04-25T13:53:25;7.73;;;3.00;;
1376;SDS011;682;52.502;13.488;2023-04-25T13:55:52;8.20;;;2.90;;
1376;SDS011;682;52.502;13.488;2023-04-25T13:58:20;7.00;;;2.77;;
1376;SDS011;682;52.502;13.488;2023-04-25T14:00:47;6.93;;;2.63;;
1376;SDS011;682;52.502;13.488;2023-04-25T14:03:15;12.57;;;2.60;;
1376;SDS011;682;52.502;13.488;2023-04-25T14:05:44;7.40;;;2.77;;
1376;SDS011;682;52.502;13.488;2023-04-25T14:08:11;6.80;;;2.73;;
1376;SDS011;682;52.502;13.488;2023-04-25T14:10:42;7.27;;;2.67;;
1376;SDS011;682;52.502;13.488;2023-04-25T14:13:10;6.10;;;2.73;;
1376;SDS011;682;52.502;13.488;2023-04-25T14:15:37;6.83;;;2.90;;
1376;SDS011;682;52.502;13.488;2023-04-25T14:18:04;8.97;;;2.23;;
1376;SDS011;682;52.502;13.488;2023-04-25T14:20:34;8.10;;;2.80;;
1376;SDS011;682;52.502;13.488;2023-04-25T14:23:01;8.13;;;3.67;;
1376;SDS011;682;52.502;13.488;2023-04-25T14:25:30;9.07;;;2.63;;
1376;SDS011;682;52.502;13.488;2023-04-25T14:28:01;10.03;;;3.13;;
1376;SDS011;682;52.502;13.488;2023-04-25T14:30:29;10.80;;;3.03;;
1376;SDS011;682;52.502;13.488;2023-04-25T14:32:56;8.07;;;2.90;;
1376;SDS011;682;52.502;13.488;2023-04-25T14:35:23;8.07;;;2.60;;
1376;SDS011;682;52.502;13.488;2023-04-25T14:37:52;7.07;;;2.67;;
1376;SDS011;682;52.502;13.488;2023-04-25T14:40:23;9.00;;;2.90;;
1376;SDS011;682;52.502;13.488;2023-04-25T14:42:50;6.40;;;2.17;;
1376;SDS011;682;52.502;13.488;2023-04-25T14:45:19;8.57;;;3.17;;
1376;SDS011;682;52.502;13.488;2023-04-25T14:47:48;7.77;;;2.73;;
1376;SDS011;682;52.502;13.488;2023-04-25T14:50:15;5.87;;;1.90;;
1376;SDS011;682;52.502;13.488;2023-04-25T14:52:43;7.73;;;2.33;;
1376;SDS011;682;52.502;13.488;2023-04-25T14:55:11;9.10;;;2.60;;
1376;SDS011;682;52.502;13.488;2023-04-25T14:57:39;8.57;;;3.00;;
1376;SDS011;682;52.502;13.488;2023-04-25T15:00:06;6.63;;;1.97;;
1376;SDS011;682;52.502;13.488;2023-04-25T15:02:37;10.60;;;2.90;;
1376;SDS011;682;52.502;13.488;2023-04-25T15:05:05;7.67;;;2.00;;
1376;SDS011;682;52.502;13.488;2023-04-25T15:07:34;7.30;;;2.90;;
1376;SDS011;682;52.502;13.488;2023-04-25T15:10:03;7.03;;;2.37;;
1376;SDS011;682;52.502;13.488;2023-04-25T15:12:38;9.23;;;3.00;;
1376;SDS011;682;52.502;13.488;2023-04-25T15:15:06;8.83;;;3.07;;
1376;SDS011;682;52.502;13.488;2023-04-25T15:17:38;6.87;;;2.20;;
1376;SDS011;682;52.502;13.488;2023-04-25T15:20:05;7.87;;;2.40;;
1376;SDS011;682;52.502;13.488;2023-04-25T15:22:35;11.17;;;2.47;;
1376;SDS011;682;52.502;13.488;2023-04-25T15:25:02;10.30;;;3.20;;
1376;SDS011;682;52.502;13.488;2023-04-25T15:27:31;6.40;;;2.10;;
1376;SDS011;682;52.502;13.488;2023-04-25T15:29:59;8.83;;;2.93;;
1376;SDS011;682;52.502;13.488;2023-04-25T15:32:28;6.80;;;1.80;;
1376;SDS011;682;52.502;13.488;2023-04-25T15:34:57;6.73;;;2.73;;
1376;SDS011;682;52.502;13.488;2023-04-25T15:37:24;6.27;;;2.10;;